Time;durP1;ratioP1;P1;durP2;ratioP2;P2;SDS_P1;SDS_P2;PMS_P1;PMS_P2;Temp;Humidity;BMP_temperature;BMP_pressure;BME280_temperature;BME280_humidity;BME280_pressure;Samples;Min_cycle;Max_cycle;Signal;HPM_P1;HPM_P2
2022/07/27 00:05:47;;;;;;;2.57;2.00;;;;;21.90;98823.00;;;;16700788;28;20722;-68
2022/07/27 00:13:51;;;;;;;2.57;2.37;;;;;22.10;98821.00;;;;16696209;28;20215;-68
2022/07/27 00:21:54;;;;;;;3.83;2.30;;;;;23.00;98822.00;;;;16699266;28;20221;-68
2022/07/27 00:29:58;;;;;;;3.13;2.83;;;;;22.50;98823.00;;;;16709043;28;20697;-69
2022/07/27 00:38:00;;;;;;;2.70;2.50;;;;;23.00;98824.00;;;;16704549;28;21105;-68
2022/07/27 00:46:04;;;;;;;2.77;2.40;;;;;21.90;98820.00;;;;16687536;28;20709;-68
2022/07/27 00:54:07;;;;;;;5.20;2.50;;;;;23.30;98799.00;;;;16688369;28;20695;-69
2022/07/27 01:02:11;;;;;;;6.00;2.83;;;;;22.00;98801.00;;;;16700863;28;20253;-68
2022/07/27 01:10:14;;;;;;;3.40;2.90;;;;;21.80;98796.00;;;;16702951;28;20660;-68
2022/07/27 01:18:30;;;;;;;4.63;2.87;;;;;22.10;98786.00;;;;16700875;28;20221;-68
2022/07/27 01:26:34;;;;;;;3.03;2.73;;;;;22.80;98771.00;;;;16704993;28;20676;-69
2022/07/27 01:34:37;;;;;;;3.07;2.87;;;;;22.70;98761.00;;;;16721679;28;20233;-68
2022/07/27 01:42:41;;;;;;;3.57;3.10;;;;;21.70;98771.00;;;;16721648;28;20222;-69
2022/07/27 01:50:43;;;;;;;5.33;4.10;;;;;21.10;98750.00;;;;16716495;28;20240;-67
2022/07/27 01:58:47;;;;;;;3.47;3.17;;;;;20.80;98744.00;;;;16720827;28;20216;-67
2022/07/27 02:06:50;;;;;;;5.37;3.57;;;;;21.20;98744.00;;;;16745831;28;20214;-68
2022/07/27 02:14:54;;;;;;;3.90;3.60;;;;;22.30;98756.00;;;;16714631;28;20217;-68
2022/07/27 02:22:56;;;;;;;4.47;3.90;;;;;21.40;98755.00;;;;16728192;28;20222;-68
2022/07/27 02:31:00;;;;;;;4.03;3.73;;;;;20.30;98754.00;;;;16705269;28;20226;-68
2022/07/27 02:39:03;;;;;;;4.33;4.00;;;;;20.60;98757.00;;;;16719076;28;20276;-68
2022/07/27 02:47:07;;;;;;;4.93;4.43;;;;;21.00;98762.00;;;;16702436;28;20194;-68
2022/07/27 02:55:10;;;;;;;4.67;4.17;;;;;21.00;98769.00;;;;16707608;28;20218;-68
2022/07/27 03:03:14;;;;;;;5.97;4.33;;;;;20.90;98766.00;;;;16705652;28;20634;-68
2022/07/27 03:11:17;;;;;;;4.23;3.93;;;;;20.70;98769.00;;;;16714598;28;20222;-68
2022/07/27 03:19:21;;;;;;;5.10;4.30;;;;;20.70;98765.00;;;;16711720;28;20221;-68
2022/07/27 03:27:23;;;;;;;4.77;4.43;;;;;20.90;98753.00;;;;16712113;28;20194;-68
2022/07/27 03:35:27;;;;;;;4.80;4.40;;;;;21.20;98756.00;;;;16704915;28;20215;-68
2022/07/27 03:43:30;;;;;;;6.07;4.50;;;;;20.00;98757.00;;;;16707046;28;20220;-68
2022/07/27 03:51:34;;;;;;;5.03;4.63;;;;;20.80;98755.00;;;;16705502;28;20225;-68
2022/07/27 03:59:36;;;;;;;5.27;4.87;;;;;20.50;98761.00;;;;16702990;28;20569;-68
2022/07/27 04:07:40;;;;;;;5.43;4.93;;;;;21.40;98765.00;;;;16701486;28;20538;-68
2022/07/27 04:15:43;;;;;;;5.30;4.90;;;;;20.10;98770.00;;;;16706407;28;20217;-68
2022/07/27 04:23:46;;;;;;;6.47;5.10;;;;;20.30;98777.00;;;;16710766;28;20266;-68
2022/07/27 04:31:49;;;;;;;6.63;5.00;;;;;20.40;98786.00;;;;16707328;28;20800;-67
2022/07/27 04:39:57;;;;;;;5.20;4.80;;;;;21.80;98786.00;;;;16702988;28;20233;-68
2022/07/27 04:48:00;;;;;;;7.03;5.07;;;;;21.30;98797.00;;;;16705074;28;20217;-68
2022/07/27 04:56:04;;;;;;;5.23;4.80;;;;;22.90;98779.00;;;;16707638;28;20214;-67
2022/07/27 05:04:06;;;;;;;5.07;4.53;;;;;23.60;98787.00;;;;16702534;28;20272;-67
2022/07/27 05:12:10;;;;;;;5.53;4.70;;;;;22.40;98797.00;;;;16701640;28;20294;-68
2022/07/27 05:20:13;;;;;;;8.30;6.50;;;;;21.00;98808.00;;;;16704404;28;20225;-66
2022/07/27 05:28:17;;;;;;;9.97;5.60;;;;;21.60;98817.00;;;;16704817;28;20588;-69
2022/07/27 05:36:19;;;;;;;6.27;5.67;;;;;21.50;98826.00;;;;16703272;28;20202;-68
2022/07/27 05:44:23;;;;;;;6.83;6.33;;;;;23.60;98832.00;;;;16702421;28;20228;-69
2022/07/27 05:52:26;;;;;;;5.70;5.10;;;;;22.80;98832.00;;;;16696135;28;20232;-67
2022/07/27 06:00:30;;;;;;;8.13;5.37;;;;;23.40;98841.00;;;;16688062;28;20225;-67
2022/07/27 06:08:33;;;;;;;6.23;5.43;;;;;22.30;98847.00;;;;16696569;28;20574;-68
2022/07/27 06:16:37;;;;;;;6.27;5.67;;;;;22.50;98855.00;;;;16713002;28;20584;-69
2022/07/27 06:24:39;;;;;;;6.57;6.07;;;;;22.00;98863.00;;;;16706544;28;20218;-68
2022/07/27 06:32:44;;;;;;;6.97;5.57;;;;;23.40;98863.00;;;;16720979;28;20214;-67
2022/07/27 06:40:51;;;;;;;5.93;5.30;;;;;23.80;98859.00;;;;16715899;28;20269;-69
2022/07/27 06:48:56;;;;;;;6.60;5.33;;;;;23.90;98865.00;;;;16713427;28;20559;-69
2022/07/27 06:56:58;;;;;;;7.23;5.20;;;;;23.60;98862.00;;;;16710358;28;20205;-69
2022/07/27 07:05:02;;;;;;;10.50;5.53;;;;;23.80;98858.00;;;;16712771;28;20234;-68
2022/07/27 07:13:06;;;;;;;4.90;4.47;;;;;23.30;98847.00;;;;16705239;28;20300;-67
2022/07/27 07:21:11;;;;;;;5.00;4.30;;;;;24.50;98857.00;;;;16710312;28;20218;-68
2022/07/27 07:29:13;;;;;;;6.57;4.20;;;;;24.40;98844.00;;;;16713595;28;20702;-68
2022/07/27 07:37:17;;;;;;;5.97;4.70;;;;;24.20;98843.00;;;;16712744;28;20216;-68
2022/07/27 07:45:22;;;;;;;6.17;5.67;;;;;23.80;98849.00;;;;16710145;28;20221;-66
2022/07/27 07:53:26;;;;;;;6.00;5.37;;;;;23.90;98841.00;;;;16711864;28;20222;-67
2022/07/27 08:01:29;;;;;;;6.20;4.90;;;;;25.80;98842.00;;;;16698180;28;20218;-68
2022/07/27 08:09:32;;;;;;;6.77;5.10;;;;;26.00;98839.00;;;;16710301;28;20271;-70
2022/07/27 08:17:35;;;;;;;6.53;4.70;;;;;24.00;98852.00;;;;16702215;28;20867;-69
2022/07/27 08:25:39;;;;;;;5.70;4.90;;;;;25.20;98853.00;;;;16708008;28;20713;-69
2022/07/27 08:33:42;;;;;;;5.27;4.77;;;;;24.30;98856.00;;;;16707223;28;20605;-69
2022/07/27 08:41:46;;;;;;;5.63;5.23;;;;;24.60;98855.00;;;;16706115;28;20839;-69
2022/07/27 08:49:48;;;;;;;7.37;5.00;;;;;26.30;98858.00;;;;16703908;28;20273;-70
2022/07/27 08:57:52;;;;;;;13.40;5.60;;;;;25.20;98852.00;;;;16701366;28;20201;-69
2022/07/27 09:05:57;;;;;;;5.03;4.70;;;;;25.20;98844.00;;;;16705005;28;20283;-68
2022/07/27 09:14:05;;;;;;;10.27;4.70;;;;;25.00;98851.00;;;;16701327;28;20596;-67
2022/07/27 09:22:08;;;;;;;9.83;6.43;;;;;25.60;98854.00;;;;16705304;28;20324;-69
2022/07/27 09:30:14;;;;;;;5.67;5.13;;;;;25.80;98848.00;;;;16692073;28;20217;-69
2022/07/27 09:38:19;;;;;;;5.10;4.60;;;;;27.50;98841.00;;;;16704391;28;20233;-69
2022/07/27 09:46:35;;;;;;;5.83;5.23;;;;;26.40;98848.00;;;;16703460;28;20227;-69
2022/07/27 09:54:45;;;;;;;5.40;4.90;;;;;25.80;98868.00;;;;16719435;28;20225;-69
2022/07/27 10:02:50;;;;;;;5.13;4.77;;;;;25.40;98857.00;;;;16715137;28;20245;-69
2022/07/27 10:10:52;;;;;;;7.63;5.30;;;;;26.70;98858.00;;;;16715587;28;20222;-70
2022/07/27 10:19:03;;;;;;;5.23;4.83;;;;;24.80;98857.00;;;;16714030;28;20571;-69
2022/07/27 10:27:19;;;;;;;6.60;4.87;;;;;26.60;98863.00;;;;16714631;28;20314;-69
2022/07/27 10:35:39;;;;;;;5.73;4.77;;;;;25.90;98847.00;;;;16717313;28;20220;-70
2022/07/27 10:43:41;;;;;;;5.33;4.93;;;;;26.10;98846.00;;;;16700652;28;20291;-71
2022/07/27 10:51:45;;;;;;;4.83;4.40;;;;;27.60;98835.00;;;;16709853;28;20218;-70
2022/07/27 10:59:51;;;;;;;4.63;3.70;;;;;28.70;98844.00;;;;16700778;28;20222;-70
2022/07/27 11:07:55;;;;;;;3.97;3.40;;;;;29.30;98826.00;;;;16714843;28;20565;-69
2022/07/27 11:16:00;;;;;;;4.97;3.63;;;;;27.70;98819.00;;;;16702697;28;20583;-69
2022/07/27 11:24:09;;;;;;;3.30;3.00;;;;;28.20;98806.00;;;;16717595;28;20218;-71
2022/07/27 11:32:18;;;;;;;3.80;3.50;;;;;27.80;98809.00;;;;16712783;28;20217;-69
2022/07/27 11:40:22;;;;;;;3.73;2.80;;;;;29.20;98804.00;;;;16710811;28;20308;-69
2022/07/27 11:48:25;;;;;;;3.50;3.10;;;;;27.80;98804.00;;;;16708177;28;20229;-69
2022/07/27 11:56:30;;;;;;;5.13;3.00;;;;;29.40;98795.00;;;;16724794;22;20245;-50
2022/07/27 12:04:34;;;;;;;5.23;2.80;;;;;31.00;98778.00;;;;16714635;28;20240;-49
2022/07/27 12:12:38;;;;;;;2.70;2.53;;;;;29.00;98781.00;;;;16711361;28;20818;-47
2022/07/27 12:20:41;;;;;;;2.63;2.43;;;;;28.30;98780.00;;;;16713733;28;20287;-49
2022/07/27 12:28:45;;;;;;;4.13;3.00;;;;;28.90;98793.00;;;;16712129;28;20763;-48
2022/07/27 12:36:48;;;;;;;3.23;2.80;;;;;29.70;98803.00;;;;16707997;28;20221;-49
2022/07/27 12:44:53;;;;;;;2.90;2.70;;;;;31.80;98791.00;;;;16706321;28;20226;-50
2022/07/27 12:52:55;;;;;;;5.60;2.93;;;;;31.30;98792.00;;;;16712273;28;20206;-51
2022/07/27 13:00:59;;;;;;;3.60;2.27;;;;;33.60;98780.00;;;;16709670;28;20305;-50
2022/07/27 13:09:01;;;;;;;3.37;1.80;;;;;32.30;98769.00;;;;16710065;28;20232;-49
2022/07/27 13:17:05;;;;;;;2.43;2.00;;;;;28.30;98765.00;;;;16709387;28;20635;-49
2022/07/27 13:25:09;;;;;;;7.50;2.90;;;;;31.30;98775.00;;;;16709869;28;20363;-50
2022/07/27 13:33:13;;;;;;;2.13;2.00;;;;;28.60;98767.00;;;;16710684;28;20202;-50
2022/07/27 13:41:15;;;;;;;3.03;2.47;;;;;30.90;98774.00;;;;16708675;28;20213;-49
2022/07/27 13:49:19;;;;;;;2.90;2.60;;;;;30.80;98758.00;;;;16701415;28;20248;-50
2022/07/27 13:57:22;;;;;;;2.40;2.20;;;;;30.50;98753.00;;;;16705508;28;20258;-50
2022/07/27 14:05:26;;;;;;;2.73;2.53;;;;;29.40;98761.00;;;;16709461;28;20238;-49
2022/07/27 14:13:31;;;;;;;4.13;2.33;;;;;30.40;98753.00;;;;16704281;28;20218;-50
2022/07/27 14:21:35;;;;;;;3.93;2.43;;;;;32.20;98746.00;;;;16707837;28;20225;-49
2022/07/27 14:29:37;;;;;;;3.17;2.37;;;;;32.70;98750.00;;;;16708361;28;20214;-49
2022/07/27 14:37:41;;;;;;;4.33;2.07;;;;;32.40;98745.00;;;;16715217;28;20250;-51
2022/07/27 14:45:45;;;;;;;3.70;2.63;;;;;29.90;98752.00;;;;16712261;28;20322;-49
2022/07/27 14:53:49;;;;;;;3.53;2.47;;;;;28.70;98751.00;;;;16718560;28;20229;-49
2022/07/27 15:01:52;;;;;;;2.17;1.97;;;;;29.90;98749.00;;;;16714900;28;20217;-50
2022/07/27 15:09:56;;;;;;;3.50;2.40;;;;;29.50;98748.00;;;;16699863;28;20744;-50
2022/07/27 15:17:58;;;;;;;3.00;2.07;;;;;30.80;98742.00;;;;16698656;28;20244;-49
2022/07/27 15:26:02;;;;;;;6.17;2.10;;;;;29.50;98752.00;;;;16680468;28;20251;-50
2022/07/27 15:34:05;;;;;;;4.53;2.63;;;;;29.30;98744.00;;;;16685896;28;20301;-49
2022/07/27 15:42:09;;;;;;;3.23;2.47;;;;;29.90;98735.00;;;;16702083;28;20214;-50
2022/07/27 15:50:12;;;;;;;2.70;1.73;;;;;29.80;98730.00;;;;16712166;28;20650;-50
2022/07/27 15:58:18;;;;;;;2.50;2.30;;;;;28.90;98730.00;;;;16714530;28;20360;-49
2022/07/27 16:06:20;;;;;;;3.30;2.20;;;;;28.70;98721.00;;;;16693628;28;20215;-49
2022/07/27 16:14:24;;;;;;;3.13;2.83;;;;;32.60;98728.00;;;;16696921;28;20232;-49
2022/07/27 16:22:27;;;;;;;2.30;2.10;;;;;29.20;98713.00;;;;16672699;28;20249;-49
2022/07/27 16:30:31;;;;;;;3.43;3.13;;;;;30.30;98710.00;;;;16670357;28;20219;-50
2022/07/27 16:38:34;;;;;;;3.23;2.17;;;;;28.80;98705.00;;;;16670452;28;20764;-49
2022/07/27 16:46:38;;;;;;;3.60;2.93;;;;;29.20;98712.00;;;;16675335;28;20347;-50
2022/07/27 16:54:40;;;;;;;2.67;2.47;;;;;30.70;98695.00;;;;16670220;28;20248;-49
2022/07/27 17:02:44;;;;;;;2.50;2.10;;;;;31.00;98715.00;;;;16683177;28;20218;-50
2022/07/27 17:10:47;;;;;;;4.00;2.60;;;;;30.60;98713.00;;;;16708923;28;20230;-49
2022/07/27 17:18:51;;;;;;;7.60;5.13;;;;;31.60;98710.00;;;;16701535;28;20597;-49
2022/07/27 17:26:53;;;;;;;5.00;2.20;;;;;33.40;98708.00;;;;16698387;28;20236;-50
2022/07/27 17:34:57;;;;;;;4.97;3.33;;;;;34.10;98715.00;;;;16664102;22;20324;-72
2022/07/27 17:43:00;;;;;;;3.53;2.83;;;;;33.90;98714.00;;;;16627436;28;20649;-71
2022/07/27 17:51:04;;;;;;;2.83;2.63;;;;;33.10;98723.00;;;;16671997;23;20230;-50
2022/07/27 17:59:06;;;;;;;2.97;2.00;;;;;31.00;98725.00;;;;16512882;28;20259;-48
2022/07/27 18:07:10;;;;;;;2.40;2.00;;;;;29.00;98730.00;;;;16515129;28;20232;-49
2022/07/27 18:23:34;;;;;;;3.70;3.27;;;;;29.20;98729.00;;;;16497490;28;20235;-48
2022/07/27 18:31:37;;;;;;;2.50;2.03;;;;;28.10;98733.00;;;;16496197;28;20279;-48
2022/07/27 18:39:40;;;;;;;2.53;1.63;;;;;28.20;98743.00;;;;16503622;28;20688;-49
2022/07/27 18:47:43;;;;;;;3.60;2.77;;;;;28.00;98748.00;;;;16498494;28;20322;-49
2022/07/27 18:55:47;;;;;;;2.40;2.20;;;;;27.00;98757.00;;;;16513920;28;20263;-50
2022/07/27 19:03:50;;;;;;;4.93;2.17;;;;;27.30;98757.00;;;;16496856;28;20303;-49
2022/07/27 19:11:54;;;;;;;2.50;2.07;;;;;27.10;98769.00;;;;16509635;28;20201;-50
2022/07/27 19:19:56;;;;;;;3.17;2.57;;;;;27.20;98776.00;;;;16507431;28;20201;-48
2022/07/27 19:28:00;;;;;;;2.33;2.13;;;;;27.00;98787.00;;;;16502058;28;20251;-48
2022/07/27 19:36:03;;;;;;;2.10;1.90;;;;;26.80;98786.00;;;;16506072;28;20217;-48
2022/07/27 19:44:07;;;;;;;2.33;2.13;;;;;27.20;98802.00;;;;16513922;28;20290;-48
2022/07/27 19:52:10;;;;;;;3.30;2.17;;;;;27.50;98804.00;;;;16508532;28;20265;-49
2022/07/27 20:00:15;;;;;;;2.50;2.30;;;;;27.00;98812.00;;;;16505662;28;20342;-49
2022/07/27 20:08:18;;;;;;;3.87;2.70;;;;;26.30;98804.00;;;;16515937;28;20297;-50
2022/07/27 20:16:22;;;;;;;3.33;3.03;;;;;24.90;98813.00;;;;16504453;28;20228;-49
2022/07/27 20:24:24;;;;;;;2.73;2.53;;;;;24.10;98822.00;;;;16511772;28;20235;-47
2022/07/27 20:32:28;;;;;;;2.33;2.17;;;;;23.30;98817.00;;;;16500484;28;20306;-49
2022/07/27 20:40:31;;;;;;;3.90;2.70;;;;;23.30;98819.00;;;;16497819;28;20672;-50
2022/07/27 20:48:35;;;;;;;2.87;2.67;;;;;22.90;98824.00;;;;16516166;28;20223;-49
2022/07/27 20:56:39;;;;;;;4.30;2.97;;;;;22.70;98819.00;;;;16516793;28;20228;-48
2022/07/27 21:04:43;;;;;;;2.90;2.50;;;;;22.60;98824.00;;;;16517518;28;20313;-49
2022/07/27 21:12:45;;;;;;;4.87;3.47;;;;;23.10;98813.00;;;;16486132;28;20791;-48
2022/07/27 21:20:49;;;;;;;2.90;2.60;;;;;24.00;98812.00;;;;16492455;28;20204;-49
2022/07/27 21:28:52;;;;;;;4.13;2.80;;;;;24.10;98812.00;;;;16487591;28;20247;-49
2022/07/27 21:36:55;;;;;;;3.00;2.70;;;;;24.10;98817.00;;;;16485838;28;20262;-50
2022/07/27 21:44:58;;;;;;;2.80;2.60;;;;;23.30;98815.00;;;;16495547;28;20220;-49
2022/07/27 21:53:02;;;;;;;2.90;2.30;;;;;23.50;98820.00;;;;16504418;28;20278;-49
2022/07/27 22:01:06;;;;;;;2.50;2.30;;;;;23.40;98820.00;;;;16503241;28;20262;-49
2022/07/27 22:09:10;;;;;;;3.43;3.00;;;;;22.80;98821.00;;;;16522735;28;20224;-49
2022/07/27 22:17:12;;;;;;;4.23;2.33;;;;;23.20;98822.00;;;;16528576;28;20616;-48
2022/07/27 22:25:17;;;;;;;6.53;2.30;;;;;22.60;98826.00;;;;16517291;28;20277;-49
2022/07/27 22:33:19;;;;;;;3.73;2.40;;;;;22.20;98823.00;;;;16507052;28;20215;-49
2022/07/27 22:41:23;;;;;;;2.90;2.63;;;;;22.20;98832.00;;;;16510037;28;20829;-49
2022/07/27 22:49:26;;;;;;;7.93;2.77;;;;;22.10;98835.00;;;;16511195;28;20224;-48
2022/07/27 22:57:30;;;;;;;3.60;2.73;;;;;21.90;98838.00;;;;16509493;28;20231;-49
2022/07/27 23:05:33;;;;;;;4.23;2.57;;;;;21.80;98835.00;;;;16503997;28;20314;-49
2022/07/27 23:13:37;;;;;;;4.27;2.40;;;;;21.40;98837.00;;;;16521770;28;20232;-49
2022/07/27 23:21:39;;;;;;;3.90;2.40;;;;;21.30;98836.00;;;;16515374;28;20204;-49
2022/07/27 23:29:43;;;;;;;4.00;2.47;;;;;21.10;98837.00;;;;16512815;28;20303;-49
2022/07/27 23:37:46;;;;;;;5.20;2.80;;;;;22.20;98830.00;;;;16510249;28;20661;-49
2022/07/27 23:45:50;;;;;;;5.77;4.40;;;;;21.50;98833.00;;;;16476544;28;20232;-48
2022/07/27 23:53:52;;;;;;;3.53;2.70;;;;;21.00;98819.00;;;;16521794;28;20735;-49
